createdAt,value
2023-05-21T00:02:00.822Z,99419.19
2023-05-21T00:04:29.782Z,99420.06
2023-05-21T00:06:56.759Z,99408.22
2023-05-21T00:09:23.619Z,99416.34
2023-05-21T00:11:50.643Z,99410.34
2023-05-21T00:14:17.525Z,99402.31
2023-05-21T00:16:47.455Z,99403.88
2023-05-21T00:19:17.955Z,99395.03
2023-05-21T00:21:47.751Z,99396.09
2023-05-21T00:24:16.851Z,99390.38
2023-05-21T00:26:43.887Z,99390.28
2023-05-21T00:29:12.664Z,99387.63
2023-05-21T00:31:41.074Z,99383.13
2023-05-21T00:34:10.822Z,99387.56
2023-05-21T00:36:40.450Z,99380.13
2023-05-21T00:39:07.490Z,99378.75
2023-05-21T00:41:35.415Z,99373.38
2023-05-21T00:44:03.221Z,99379.78
2023-05-21T00:46:30.489Z,99366.41
2023-05-21T00:48:58.531Z,99371.47
2023-05-21T00:51:30.372Z,99363.66
2023-05-21T00:53:58.056Z,99366.47
2023-05-21T00:56:27.286Z,99362.81
2023-05-21T00:58:57.527Z,99363.75
2023-05-21T01:01:27.224Z,99363.06
2023-05-21T01:03:58.093Z,99367.00
2023-05-21T01:06:25.325Z,99367.84
2023-05-21T01:08:53.568Z,99372.75
2023-05-21T01:11:28.001Z,99367.97
2023-05-21T01:14:01.412Z,99360.75
2023-05-21T01:16:28.445Z,99350.09
2023-05-21T01:18:59.737Z,99333.63
2023-05-21T01:21:32.545Z,99350.53
2023-05-21T01:24:07.281Z,99334.25
2023-05-21T01:26:39.046Z,99342.31
2023-05-21T01:29:15.382Z,99344.34
2023-05-21T01:31:55.598Z,99357.91
2023-05-21T01:34:41.816Z,99349.56
2023-05-21T01:37:26.230Z,99360.38
2023-05-21T01:39:57.499Z,99353.38
2023-05-21T01:42:25.562Z,99344.34
2023-05-21T01:44:57.380Z,99347.66
2023-05-21T01:47:29.594Z,99347.84
2023-05-21T01:49:57.084Z,99348.34
2023-05-21T01:52:29.269Z,99355.53
2023-05-21T01:55:00.452Z,99353.53
2023-05-21T01:57:27.494Z,99347.53
2023-05-21T01:59:55.058Z,99345.50
2023-05-21T02:02:22.159Z,99350.50
2023-05-21T02:04:50.235Z,99348.88
2023-05-21T02:07:18.394Z,99341.84
2023-05-21T02:09:45.266Z,99336.84
2023-05-21T02:12:12.170Z,99331.00
2023-05-21T02:14:39.594Z,99327.47
2023-05-21T02:17:08.204Z,99338.00
2023-05-21T02:19:35.406Z,99322.13
2023-05-21T02:22:02.572Z,99330.31
2023-05-21T02:24:29.484Z,99336.84
2023-05-21T02:26:56.377Z,99322.97
2023-05-21T02:29:23.348Z,99324.16
2023-05-21T02:31:51.446Z,99308.47
2023-05-21T02:34:21.339Z,99319.78
2023-05-21T02:36:48.593Z,99316.47
2023-05-21T02:39:15.715Z,99314.09
2023-05-21T02:41:45.252Z,99323.59
2023-05-21T02:44:15.087Z,99324.13
2023-05-21T02:46:41.931Z,99331.63
2023-05-21T02:49:09.412Z,99331.63
2023-05-21T02:51:36.354Z,99327.81
2023-05-21T02:54:06.272Z,99334.81
2023-05-21T02:56:38.560Z,99334.63
2023-05-21T02:59:05.598Z,99338.47
2023-05-21T03:01:36.318Z,99340.53
2023-05-21T03:04:03.660Z,99329.03
2023-05-21T03:06:32.226Z,99331.69
2023-05-21T03:08:59.158Z,99333.88
2023-05-21T03:11:26.114Z,99331.38
2023-05-21T03:13:58.708Z,99338.38
2023-05-21T03:16:25.631Z,99336.91
2023-05-21T03:18:54.907Z,99345.75
2023-05-21T03:21:32.956Z,99340.91
2023-05-21T03:24:03.603Z,99350.59
2023-05-21T03:26:34.456Z,99352.59
2023-05-21T03:29:04.003Z,99350.41
2023-05-21T03:31:31.152Z,99353.38
2023-05-21T03:34:09.965Z,99349.19
2023-05-21T03:36:36.950Z,99352.88
2023-05-21T03:39:07.046Z,99349.00
2023-05-21T03:41:34.877Z,99348.47
2023-05-21T03:44:08.374Z,99348.19
2023-05-21T03:47:02.447Z,99344.13
2023-05-21T03:49:34.768Z,99343.56
2023-05-21T03:52:02.025Z,99347.50
2023-05-21T03:54:33.680Z,99346.31
2023-05-21T03:57:05.060Z,99345.59
2023-05-21T03:59:33.146Z,99347.59
2023-05-21T04:02:06.288Z,99342.50
2023-05-21T04:04:34.002Z,99345.25
2023-05-21T04:07:01.178Z,99345.47
2023-05-21T04:09:28.404Z,99343.41
2023-05-21T04:11:55.383Z,99349.63
2023-05-21T04:14:27.818Z,99353.38
2023-05-21T04:16:54.672Z,99346.41
2023-05-21T04:19:21.986Z,99342.97
2023-05-21T04:21:49.805Z,99344.50
2023-05-21T04:24:20.218Z,99356.44
2023-05-21T04:27:01.651Z,99354.94
2023-05-21T04:29:31.018Z,99352.44
2023-05-21T04:31:59.950Z,99351.22
2023-05-21T04:34:26.844Z,99346.22
2023-05-21T04:36:56.988Z,99339.34
2023-05-21T04:39:25.093Z,99340.66
2023-05-21T04:41:54.775Z,99345.28
2023-05-21T04:44:26.597Z,99352.78
2023-05-21T04:47:00.744Z,99346.03
2023-05-21T04:49:31.039Z,99345.69
2023-05-21T04:51:59.215Z,99354.91
2023-05-21T04:54:26.154Z,99357.31
2023-05-21T04:56:53.884Z,99358.97
2023-05-21T04:59:21.763Z,99363.97
2023-05-21T05:01:57.634Z,99358.41
2023-05-21T05:04:24.505Z,99366.72
2023-05-21T05:06:58.883Z,99365.53
2023-05-21T05:09:25.877Z,99364.16
2023-05-21T05:11:55.079Z,99368.72
2023-05-21T05:14:22.004Z,99363.97
2023-05-21T05:16:54.586Z,99367.63
2023-05-21T05:19:21.714Z,99370.59
2023-05-21T05:21:48.702Z,99367.03
2023-05-21T05:24:16.352Z,99366.94
2023-05-21T05:26:43.770Z,99372.31
2023-05-21T05:29:11.518Z,99371.47
2023-05-21T05:31:38.570Z,99374.53
2023-05-21T05:34:06.347Z,99383.06
2023-05-21T05:36:33.786Z,99375.72
2023-05-21T05:39:00.840Z,99387.56
2023-05-21T05:41:27.861Z,99383.44
2023-05-21T05:43:55.870Z,99378.88
2023-05-21T05:46:26.144Z,99380.06
2023-05-21T05:48:53.240Z,99372.84
2023-05-21T05:51:20.113Z,99368.47
2023-05-21T05:53:47.003Z,99361.16
2023-05-21T05:56:14.392Z,99366.22
2023-05-21T05:58:41.462Z,99376.22
2023-05-21T06:01:13.753Z,99374.34
2023-05-21T06:03:41.473Z,99368.44
2023-05-21T06:06:14.749Z,99370.50
2023-05-21T06:08:42.006Z,99378.34
2023-05-21T06:11:09.817Z,99375.19
2023-05-21T06:13:36.959Z,99378.75
2023-05-21T06:16:05.733Z,99386.38
2023-05-21T06:18:32.933Z,99382.50
2023-05-21T06:20:59.930Z,99386.28
2023-05-21T06:23:27.710Z,99374.59
2023-05-21T06:25:55.415Z,99379.41
2023-05-21T06:28:22.653Z,99372.97
2023-05-21T06:30:50.122Z,99374.50
2023-05-21T06:33:17.122Z,99365.44
2023-05-21T06:35:44.501Z,99368.13
2023-05-21T06:38:14.808Z,99365.59
2023-05-21T06:40:44.736Z,99355.13
2023-05-21T06:43:15.788Z,99360.38
2023-05-21T06:46:14.843Z,99361.97
2023-05-21T06:48:45.164Z,99354.94
2023-05-21T06:51:12.472Z,99352.78
2023-05-21T06:53:41.531Z,99354.09
2023-05-21T06:56:08.559Z,99357.88
2023-05-21T06:58:38.249Z,99340.63
2023-05-21T07:01:05.375Z,99349.66
2023-05-21T07:03:32.909Z,99353.44
2023-05-21T07:05:59.897Z,99359.34
2023-05-21T07:08:27.396Z,99355.00
2023-05-21T07:10:56.439Z,99354.22
2023-05-21T07:13:26.525Z,99354.69
2023-05-21T07:15:53.718Z,99356.94
2023-05-21T07:18:21.130Z,99356.72
2023-05-21T07:20:48.031Z,99360.47
2023-05-21T07:23:16.384Z,99355.50
2023-05-21T07:25:44.295Z,99351.34
2023-05-21T07:28:13.054Z,99343.41
2023-05-21T07:30:40.073Z,99346.75
2023-05-21T07:33:12.774Z,99355.47
2023-05-21T07:35:40.968Z,99347.56
2023-05-21T07:38:08.264Z,99366.69
2023-05-21T07:40:35.271Z,99354.22
2023-05-21T07:43:03.343Z,99347.81
2023-05-21T07:45:31.797Z,99354.84
2023-05-21T07:47:58.916Z,99353.16
2023-05-21T07:50:27.038Z,99364.41
2023-05-21T07:52:54.666Z,99354.25
2023-05-21T07:55:21.881Z,99357.94
2023-05-21T07:57:49.579Z,99358.91
2023-05-21T08:00:19.183Z,99358.19
2023-05-21T08:02:54.131Z,99354.19
2023-05-21T08:05:23.559Z,99362.50
2023-05-21T08:07:50.805Z,99355.09
2023-05-21T08:10:19.488Z,99354.72
2023-05-21T08:12:48.499Z,99353.22
2023-05-21T08:15:15.650Z,99360.75
2023-05-21T08:17:45.370Z,99353.41
2023-05-21T08:20:14.486Z,99353.59
2023-05-21T08:22:43.801Z,99354.28
2023-05-21T08:25:11.226Z,99354.31
2023-05-21T08:27:38.608Z,99362.88
2023-05-21T08:30:06.918Z,99361.53
2023-05-21T08:32:34.982Z,99369.88
2023-05-21T08:35:01.958Z,99372.56
2023-05-21T08:37:45.418Z,99372.19
2023-05-21T08:40:35.826Z,99374.38
2023-05-21T08:43:02.875Z,99366.97
2023-05-21T08:45:42.831Z,99372.78
2023-05-21T08:48:17.031Z,99378.50
2023-05-21T08:50:45.291Z,99388.88
2023-05-21T08:53:28.221Z,99386.34
2023-05-21T08:55:57.540Z,99381.63
2023-05-21T08:58:33.826Z,99398.91
2023-05-21T09:01:01.750Z,99409.03
2023-05-21T09:03:40.583Z,99381.84
2023-05-21T09:06:14.154Z,99392.38
2023-05-21T09:08:46.021Z,99396.78
2023-05-21T09:11:21.700Z,99389.72
2023-05-21T09:13:55.478Z,99403.84
2023-05-21T09:16:33.840Z,99399.66
2023-05-21T09:19:04.631Z,99398.81
2023-05-21T09:21:35.302Z,99398.59
2023-05-21T09:24:11.286Z,99407.06
2023-05-21T09:26:42.071Z,99402.28
2023-05-21T09:29:09.162Z,99405.91
2023-05-21T09:31:36.933Z,99400.41
2023-05-21T09:34:03.999Z,99407.50
2023-05-21T09:36:34.731Z,99396.47
2023-05-21T09:39:01.806Z,99401.25
2023-05-21T09:41:33.800Z,99402.34
2023-05-21T09:44:04.477Z,99399.03
2023-05-21T09:46:41.677Z,99402.91
2023-05-21T09:49:26.653Z,99400.56
2023-05-21T09:51:58.654Z,99402.91
2023-05-21T09:54:31.126Z,99409.69
2023-05-21T09:56:58.066Z,99406.63
2023-05-21T09:59:35.308Z,99410.22
2023-05-21T10:02:02.708Z,99413.84
2023-05-21T10:04:31.778Z,99415.91
2023-05-21T10:07:00.967Z,99415.28
2023-05-21T10:09:30.078Z,99424.41
2023-05-21T10:11:57.518Z,99416.31
2023-05-21T10:14:27.909Z,99413.41
2023-05-21T10:16:59.060Z,99408.22
2023-05-21T10:19:26.975Z,99414.06
2023-05-21T10:21:54.511Z,99410.09
2023-05-21T10:24:22.251Z,99418.59
2023-05-21T10:26:49.594Z,99410.25
2023-05-21T10:29:19.555Z,99416.81
2023-05-21T10:31:50.000Z,99408.81
2023-05-21T10:34:17.557Z,99412.34
2023-05-21T10:36:45.279Z,99407.31
2023-05-21T10:39:13.623Z,99412.72
2023-05-21T10:42:18.902Z,99410.25
2023-05-21T10:45:17.219Z,99410.19
2023-05-21T10:48:14.482Z,99407.91
2023-05-21T10:50:47.417Z,99408.38
2023-05-21T10:53:29.197Z,99410.63
2023-05-21T10:56:06.881Z,99402.81
2023-05-21T10:59:12.903Z,99406.28
2023-05-21T11:01:42.099Z,99401.47
2023-05-21T11:04:09.311Z,99404.19
2023-05-21T11:06:36.660Z,99398.56
2023-05-21T11:09:16.521Z,99397.63
2023-05-21T11:11:50.927Z,99400.31
2023-05-21T11:17:09.030Z,99387.88
2023-05-21T11:19:40.081Z,99391.63
2023-05-21T11:22:09.400Z,99386.19
2023-05-21T11:24:41.446Z,99376.25
2023-05-21T11:27:08.868Z,99376.03
2023-05-21T11:29:44.709Z,99373.13
2023-05-21T11:32:13.635Z,99369.38
2023-05-21T11:34:48.645Z,99376.47
2023-05-21T11:37:23.448Z,99363.72
2023-05-21T11:39:51.258Z,99365.59
2023-05-21T11:42:30.551Z,99368.66
2023-05-21T11:45:01.126Z,99361.56
2023-05-21T11:47:29.469Z,99362.41
2023-05-21T11:49:58.358Z,99366.09
2023-05-21T11:52:26.916Z,99352.81
2023-05-21T11:54:56.896Z,99357.97
2023-05-21T11:57:30.962Z,99360.38
2023-05-21T11:59:59.419Z,99347.91
2023-05-21T12:02:31.085Z,99343.81
2023-05-21T12:05:01.265Z,99344.25
2023-05-21T12:07:29.999Z,99339.81
2023-05-21T12:09:57.821Z,99343.06
2023-05-21T12:12:35.334Z,99334.88
2023-05-21T12:15:10.439Z,99331.34
2023-05-21T12:17:37.430Z,99333.03
2023-05-21T12:20:07.584Z,99330.72
2023-05-21T12:22:34.469Z,99327.47
2023-05-21T12:25:01.703Z,99321.25
2023-05-21T12:27:31.942Z,99322.66
2023-05-21T12:29:59.774Z,99322.66
2023-05-21T12:32:27.755Z,99323.34
2023-05-21T12:34:56.363Z,99318.00
2023-05-21T12:37:32.517Z,99317.59
2023-05-21T12:40:05.234Z,99317.16
2023-05-21T12:42:41.902Z,99310.28
2023-05-21T12:45:10.032Z,99301.09
2023-05-21T12:47:37.577Z,99303.59
2023-05-21T12:50:09.540Z,99298.41
2023-05-21T12:52:36.471Z,99293.22
2023-05-21T12:55:04.567Z,99290.34
2023-05-21T12:57:41.592Z,99292.16
2023-05-21T13:00:10.346Z,99292.16
2023-05-21T13:02:41.283Z,99299.13
2023-05-21T13:05:10.829Z,99296.03
2023-05-21T13:07:39.597Z,99298.97
2023-05-21T13:10:09.801Z,99294.31
2023-05-21T13:12:36.949Z,99298.59
2023-05-21T13:15:05.971Z,99291.72
2023-05-21T13:17:32.876Z,99280.72
2023-05-21T13:20:12.330Z,99281.69
2023-05-21T13:22:47.408Z,99287.72
2023-05-21T13:25:17.032Z,99273.44
2023-05-21T13:27:44.740Z,99274.72
2023-05-21T13:30:14.575Z,99277.13
2023-05-21T13:32:42.386Z,99274.91
2023-05-21T13:35:10.225Z,99271.03
2023-05-21T13:37:37.210Z,99277.09
2023-05-21T13:40:05.971Z,99266.03
2023-05-21T13:42:33.802Z,99271.00
2023-05-21T13:45:00.755Z,99268.44
2023-05-21T13:47:27.677Z,99262.06
2023-05-21T13:49:54.517Z,99267.78
2023-05-21T13:52:21.811Z,99268.59
2023-05-21T13:54:48.725Z,99266.84
2023-05-21T13:57:16.971Z,99271.06
2023-05-21T13:59:43.834Z,99270.22
2023-05-21T14:02:11.077Z,99268.84
2023-05-21T14:04:39.470Z,99261.53
2023-05-21T14:07:07.264Z,99256.22
2023-05-21T14:09:34.405Z,99264.31
2023-05-21T14:12:01.573Z,99265.16
2023-05-21T14:14:28.506Z,99263.03
2023-05-21T14:16:55.476Z,99257.72
2023-05-21T14:19:22.404Z,99256.09
2023-05-21T14:21:52.465Z,99255.75
2023-05-21T14:24:20.095Z,99252.34
2023-05-21T14:26:47.040Z,99257.69
2023-05-21T14:29:14.302Z,99252.88
2023-05-21T14:31:41.255Z,99262.50
2023-05-21T14:34:08.924Z,99251.09
2023-05-21T14:36:36.625Z,99262.81
2023-05-21T14:39:03.929Z,99256.34
2023-05-21T14:41:30.974Z,99255.47
2023-05-21T14:43:57.821Z,99249.44
2023-05-21T14:46:24.980Z,99250.25
2023-05-21T14:48:59.203Z,99243.81
2023-05-21T14:51:26.109Z,99244.19
2023-05-21T14:53:52.967Z,99238.31
2023-05-21T14:56:22.199Z,99246.00
2023-05-21T14:58:49.378Z,99246.91
2023-05-21T15:01:16.341Z,99247.22
2023-05-21T15:03:43.389Z,99246.66
2023-05-21T15:06:10.386Z,99251.47
2023-05-21T15:08:37.310Z,99250.78
2023-05-21T15:11:04.250Z,99243.69
2023-05-21T15:13:31.193Z,99247.75
2023-05-21T15:15:58.037Z,99248.09
2023-05-21T15:18:25.070Z,99249.06
2023-05-21T15:20:52.254Z,99243.09
2023-05-21T15:23:19.157Z,99244.66
2023-05-21T15:25:46.193Z,99242.22
2023-05-21T15:28:13.484Z,99249.22
2023-05-21T15:30:40.859Z,99252.06
2023-05-21T15:33:08.140Z,99248.06
2023-05-21T15:35:36.612Z,99251.78
2023-05-21T15:38:03.988Z,99251.00
2023-05-21T15:40:32.284Z,99243.66
2023-05-21T15:42:59.364Z,99244.59
2023-05-21T15:45:26.311Z,99242.88
2023-05-21T15:47:53.299Z,99246.91
2023-05-21T15:50:22.680Z,99246.81
2023-05-21T15:52:51.585Z,99251.16
2023-05-21T15:55:20.492Z,99248.63
2023-05-21T15:57:47.416Z,99247.28
2023-05-21T16:00:14.612Z,99250.28
2023-05-21T16:02:42.202Z,99257.28
2023-05-21T16:05:09.669Z,99254.59
2023-05-21T16:07:38.175Z,99257.06
2023-05-21T16:10:06.646Z,99266.19
2023-05-21T16:12:33.537Z,99267.44
2023-05-21T16:15:00.475Z,99264.34
2023-05-21T16:17:27.423Z,99265.81
2023-05-21T16:19:54.345Z,99270.03
2023-05-21T16:22:21.309Z,99274.78
2023-05-21T16:24:48.439Z,99274.56
2023-05-21T16:27:17.498Z,99267.75
2023-05-21T16:29:44.839Z,99268.63
2023-05-21T16:32:14.816Z,99270.91
2023-05-21T16:34:42.112Z,99264.50
2023-05-21T16:37:09.930Z,99258.97
2023-05-21T16:39:37.193Z,99263.75
2023-05-21T16:42:04.345Z,99266.88
2023-05-21T16:44:32.137Z,99270.59
2023-05-21T16:47:00.289Z,99282.84
2023-05-21T16:49:27.773Z,99281.19
2023-05-21T16:51:54.874Z,99283.06
2023-05-21T16:54:21.927Z,99289.09
2023-05-21T16:56:49.041Z,99287.41
2023-05-21T16:59:16.601Z,99283.91
2023-05-21T17:01:44.113Z,99285.97
2023-05-21T17:04:11.869Z,99291.13
2023-05-21T17:06:41.674Z,99288.00
2023-05-21T17:09:08.610Z,99293.19
2023-05-21T17:11:35.524Z,99294.00
2023-05-21T17:14:02.465Z,99301.03
2023-05-21T17:16:29.409Z,99297.53
2023-05-21T17:18:56.470Z,99300.84
2023-05-21T17:21:23.445Z,99308.50
2023-05-21T17:23:50.403Z,99307.66
2023-05-21T17:26:17.266Z,99303.50
2023-05-21T17:28:44.113Z,99318.03
2023-05-21T17:31:11.041Z,99304.69
2023-05-21T17:33:38.103Z,99307.81
2023-05-21T17:36:05.227Z,99309.47
2023-05-21T17:38:32.112Z,99306.16
2023-05-21T17:40:59.467Z,99308.03
2023-05-21T17:43:27.774Z,99317.19
2023-05-21T17:45:54.835Z,99322.09
2023-05-21T17:48:21.996Z,99330.59
2023-05-21T17:50:49.134Z,99319.50
2023-05-21T17:53:16.625Z,99322.56
2023-05-21T17:55:43.551Z,99331.47
2023-05-21T17:58:10.497Z,99319.47
2023-05-21T18:00:37.392Z,99331.09
2023-05-21T18:03:04.706Z,99326.72
2023-05-21T18:05:31.785Z,99336.66
2023-05-21T18:08:01.144Z,99337.91
2023-05-21T18:10:31.520Z,99338.28
2023-05-21T18:13:01.426Z,99341.38
2023-05-21T18:15:28.368Z,99345.16
2023-05-21T18:17:55.297Z,99353.47
2023-05-21T18:20:22.198Z,99350.69
2023-05-21T18:22:49.086Z,99349.28
2023-05-21T18:25:15.990Z,99360.44
2023-05-21T18:27:44.073Z,99362.06
2023-05-21T18:30:13.158Z,99356.69
2023-05-21T18:32:44.605Z,99361.03
2023-05-21T18:35:13.144Z,99355.84
2023-05-21T18:37:44.617Z,99354.56
2023-05-21T18:40:12.598Z,99355.78
2023-05-21T18:42:39.567Z,99375.13
2023-05-21T18:45:10.513Z,99367.03
2023-05-21T18:47:39.332Z,99369.28
2023-05-21T18:50:11.326Z,99366.84
2023-05-21T18:52:38.248Z,99370.22
2023-05-21T18:55:05.901Z,99375.03
2023-05-21T18:57:34.830Z,99375.88
2023-05-21T19:00:01.700Z,99373.81
2023-05-21T19:02:29.796Z,99370.06
2023-05-21T19:04:56.867Z,99369.41
2023-05-21T19:07:23.826Z,99379.09
2023-05-21T19:09:52.761Z,99379.22
2023-05-21T19:12:19.757Z,99376.72
2023-05-21T19:14:46.973Z,99378.38
2023-05-21T19:17:13.857Z,99383.94
2023-05-21T19:19:40.698Z,99388.75
2023-05-21T19:22:08.010Z,99381.31
2023-05-21T19:24:34.937Z,99377.41
2023-05-21T19:27:01.884Z,99388.34
2023-05-21T19:29:31.417Z,99378.28
2023-05-21T19:31:59.274Z,99374.84
2023-05-21T19:34:29.153Z,99376.78
2023-05-21T19:36:58.727Z,99381.34
2023-05-21T19:39:25.609Z,99378.13
2023-05-21T19:41:53.135Z,99380.69
2023-05-21T19:44:20.041Z,99387.75
2023-05-21T19:46:49.183Z,99375.81
2023-05-21T19:49:16.231Z,99375.06
2023-05-21T19:51:46.457Z,99386.28
2023-05-21T19:54:16.801Z,99389.09
2023-05-21T19:56:43.744Z,99391.94
2023-05-21T19:59:11.585Z,99389.03
2023-05-21T20:01:43.422Z,99398.28
2023-05-21T20:04:13.370Z,99400.19
2023-05-21T20:06:41.348Z,99402.38
2023-05-21T20:09:13.316Z,99404.38
2023-05-21T20:11:42.240Z,99408.94
2023-05-21T20:14:09.362Z,99404.66
2023-05-21T20:16:39.042Z,99415.25
2023-05-21T20:19:06.063Z,99409.00
2023-05-21T20:21:34.403Z,99410.84
2023-05-21T20:24:03.480Z,99416.28
2023-05-21T20:26:37.074Z,99409.53
2023-05-21T20:29:04.047Z,99404.75
2023-05-21T20:31:31.101Z,99403.78
2023-05-21T20:33:58.839Z,99412.28
2023-05-21T20:36:27.212Z,99408.03
2023-05-21T20:38:57.512Z,99403.84
2023-05-21T20:41:26.875Z,99410.97
2023-05-21T20:43:55.431Z,99407.34
2023-05-21T20:46:22.332Z,99404.81
2023-05-21T20:48:49.580Z,99402.97
2023-05-21T20:51:19.631Z,99403.75
2023-05-21T20:53:49.815Z,99403.41
2023-05-21T20:56:21.713Z,99405.66
2023-05-21T20:58:53.491Z,99411.94
2023-05-21T21:01:20.577Z,99413.34
2023-05-21T21:03:47.574Z,99411.41
2023-05-21T21:06:15.390Z,99411.94
2023-05-21T21:08:46.188Z,99406.44
2023-05-21T21:11:13.521Z,99411.44
2023-05-21T21:13:41.046Z,99405.59
2023-05-21T21:16:11.101Z,99406.06
2023-05-21T21:18:40.442Z,99404.44
2023-05-21T21:21:07.342Z,99401.25
2023-05-21T21:23:36.777Z,99399.31
2023-05-21T21:26:03.701Z,99407.06
2023-05-21T21:28:30.655Z,99402.25
2023-05-21T21:31:02.873Z,99392.94
2023-05-21T21:33:32.402Z,99393.78
2023-05-21T21:36:00.769Z,99392.16
2023-05-21T21:38:27.653Z,99400.47
2023-05-21T21:40:57.320Z,99395.00
2023-05-21T21:43:24.161Z,99388.38
2023-05-21T21:45:51.476Z,99393.06
2023-05-21T21:48:18.446Z,99385.63
2023-05-21T21:50:48.293Z,99387.44
2023-05-21T21:53:15.218Z,99382.19
2023-05-21T21:55:42.038Z,99393.44
2023-05-21T21:58:08.898Z,99381.09
2023-05-21T22:00:40.478Z,99388.06
2023-05-21T22:03:07.535Z,99380.13
2023-05-21T22:05:34.455Z,99385.47
2023-05-21T22:08:02.353Z,99387.78
2023-05-21T22:10:29.261Z,99392.25
2023-05-21T22:13:01.148Z,99389.41
2023-05-21T22:15:29.755Z,99389.25
2023-05-21T22:17:56.691Z,99385.63
2023-05-21T22:20:29.347Z,99384.78
2023-05-21T22:22:57.250Z,99378.63
2023-05-21T22:25:24.183Z,99376.25
2023-05-21T22:27:51.577Z,99382.22
2023-05-21T22:30:19.650Z,99382.69
2023-05-21T22:32:50.073Z,99382.13
2023-05-21T22:35:19.929Z,99383.06
2023-05-21T22:37:46.852Z,99382.88
2023-05-21T22:40:13.889Z,99390.09
2023-05-21T22:42:41.056Z,99388.22
2023-05-21T22:45:11.176Z,99384.09
2023-05-21T22:47:39.787Z,99390.25
2023-05-21T22:50:10.225Z,99385.72
2023-05-21T22:52:38.289Z,99381.00
2023-05-21T22:55:06.337Z,99381.47
2023-05-21T22:57:33.308Z,99381.00
2023-05-21T23:00:02.597Z,99376.56
2023-05-21T23:02:29.496Z,99379.38
2023-05-21T23:04:58.206Z,99374.34
2023-05-21T23:07:27.597Z,99377.97
2023-05-21T23:10:00.189Z,99370.13
2023-05-21T23:12:29.916Z,99373.34
2023-05-21T23:14:56.931Z,99364.63
2023-05-21T23:17:27.205Z,99377.25
2023-05-21T23:19:54.167Z,99369.28
2023-05-21T23:22:23.821Z,99375.25
2023-05-21T23:24:51.209Z,99378.56
2023-05-21T23:27:20.369Z,99375.25
2023-05-21T23:29:47.227Z,99368.91
2023-05-21T23:32:14.128Z,99364.09
2023-05-21T23:34:42.057Z,99362.72
2023-05-21T23:37:09.007Z,99369.28
2023-05-21T23:39:36.752Z,99358.09
2023-05-21T23:42:04.072Z,99361.81
2023-05-21T23:44:30.912Z,99354.09
2023-05-21T23:46:57.720Z,99353.84
2023-05-21T23:49:24.642Z,99352.81
2023-05-21T23:51:54.528Z,99358.03
2023-05-21T23:54:21.407Z,99356.63
2023-05-21T23:56:50.546Z,99355.34
2023-05-21T23:59:18.744Z,99352.06
